Time;durP1;ratioP1;P1;durP2;ratioP2;P2;SDS_P1;SDS_P2;PMS_P1;PMS_P2;Temp;Humidity;BMP_temperature;BMP_pressure;BME280_temperature;BME280_humidity;BME280_pressure;Samples;Min_cycle;Max_cycle;Signal;HPM_P1;HPM_P2
2023/01/25 00:02:02;;;;;;;33.83;16.67;;;5.80;99.90;;;;;;5011846;28;20029;-72
2023/01/25 00:04:28;;;;;;;29.83;16.13;;;5.80;99.90;;;;;;4993925;28;20022;-73
2023/01/25 00:06:55;;;;;;;34.45;16.95;;;5.80;99.90;;;;;;5011687;28;20458;-74
2023/01/25 00:09:22;;;;;;;32.85;18.45;;;5.80;99.90;;;;;;5011538;28;20030;-73
2023/01/25 00:11:47;;;;;;;30.45;16.33;;;5.80;99.90;;;;;;5012025;28;20033;-73
2023/01/25 00:14:14;;;;;;;33.45;18.35;;;5.80;99.90;;;;;;5011641;28;20030;-74
2023/01/25 00:16:41;;;;;;;28.13;16.55;;;5.80;99.90;;;;;;5011627;28;20022;-74
2023/01/25 00:19:08;;;;;;;36.25;18.48;;;5.80;99.90;;;;;;5011518;28;20022;-73
2023/01/25 00:21:35;;;;;;;34.75;16.65;;;5.80;99.90;;;;;;5011745;28;20037;-73
2023/01/25 00:24:02;;;;;;;33.40;18.42;;;5.80;99.90;;;;;;4994112;28;20056;-74
2023/01/25 00:26:34;;;;;;;32.25;17.63;;;5.80;99.90;;;;;;5011412;28;20038;-73
2023/01/25 00:29:01;;;;;;;37.92;18.48;;;5.80;99.90;;;;;;4993801;28;20441;-74
2023/01/25 00:31:33;;;;;;;32.92;17.75;;;5.80;99.90;;;;;;5010550;28;20084;-72
2023/01/25 00:34:23;;;;;;;33.10;16.85;;;5.80;99.90;;;;;;5011432;28;20030;-73
2023/01/25 00:37:09;;;;;;;31.42;17.35;;;5.80;99.90;;;;;;5011961;28;20069;-74
2023/01/25 00:39:35;;;;;;;28.52;15.38;;;5.80;99.90;;;;;;5011627;28;20038;-74
2023/01/25 00:42:01;;;;;;;35.97;18.35;;;5.80;99.90;;;;;;4994721;28;20040;-74
2023/01/25 00:44:26;;;;;;;31.35;16.83;;;5.80;99.90;;;;;;5012360;28;20029;-74
2023/01/25 00:46:52;;;;;;;36.22;18.23;;;5.80;99.90;;;;;;5012533;28;20124;-73
2023/01/25 00:49:23;;;;;;;36.22;18.05;;;5.80;99.90;;;;;;5016175;28;20094;-73
2023/01/25 00:51:49;;;;;;;36.40;18.53;;;5.80;99.90;;;;;;5015947;28;20127;-73
2023/01/25 00:54:16;;;;;;;37.92;19.17;;;5.80;99.90;;;;;;5016983;28;20032;-73
2023/01/25 00:56:41;;;;;;;29.25;15.38;;;5.80;99.90;;;;;;4995186;28;20022;-72
2023/01/25 00:59:08;;;;;;;31.60;16.00;;;5.80;99.90;;;;;;5011336;28;20029;-72
2023/01/25 01:01:34;;;;;;;35.05;17.10;;;5.80;99.90;;;;;;5011302;28;20022;-73
2023/01/25 01:04:00;;;;;;;31.92;16.70;;;5.80;99.90;;;;;;4993263;28;20132;-73
2023/01/25 01:06:25;;;;;;;34.45;19.15;;;5.80;99.90;;;;;;5011294;28;20022;-73
2023/01/25 01:08:51;;;;;;;32.13;17.30;;;5.80;99.90;;;;;;5010999;28;20382;-73
2023/01/25 01:11:17;;;;;;;36.22;18.20;;;5.80;99.90;;;;;;4993415;28;20026;-73
2023/01/25 01:13:43;;;;;;;37.80;20.02;;;5.80;99.90;;;;;;5010918;28;20022;-74
2023/01/25 01:16:10;;;;;;;34.17;16.77;;;5.80;99.90;;;;;;5011074;28;20594;-74
2023/01/25 01:18:39;;;;;;;31.20;17.13;;;5.80;99.90;;;;;;5010891;28;20038;-74
2023/01/25 01:21:07;;;;;;;27.33;15.50;;;5.80;99.90;;;;;;4993421;28;20037;-74
2023/01/25 01:23:33;;;;;;;31.17;16.58;;;5.80;99.90;;;;;;5010801;28;20475;-73
2023/01/25 01:26:03;;;;;;;29.77;15.95;;;5.80;99.90;;;;;;5010919;28;20037;-73
2023/01/25 01:28:30;;;;;;;28.48;15.15;;;5.80;99.90;;;;;;5010850;28;20025;-73
2023/01/25 01:31:04;;;;;;;26.70;15.15;;;5.80;99.90;;;;;;5010660;28;20022;-72
2023/01/25 01:33:30;;;;;;;27.90;15.73;;;5.80;99.90;;;;;;4993247;28;20030;-71
2023/01/25 01:35:56;;;;;;;27.98;15.43;;;5.80;99.90;;;;;;5010793;28;20034;-72
2023/01/25 01:38:22;;;;;;;29.15;15.73;;;5.80;99.90;;;;;;4993174;28;20050;-72
2023/01/25 01:40:48;;;;;;;34.15;17.35;;;5.80;99.90;;;;;;5011210;28;20108;-73
2023/01/25 01:43:19;;;;;;;31.05;16.25;;;5.80;99.90;;;;;;5014105;28;20061;-73
2023/01/25 01:45:48;;;;;;;32.38;17.25;;;5.80;99.90;;;;;;5014185;28;20109;-73
2023/01/25 01:48:36;;;;;;;36.35;16.52;;;5.80;99.90;;;;;;5014296;28;20033;-73
2023/01/25 01:51:32;;;;;;;32.78;16.50;;;5.80;99.90;;;;;;5014303;28;20053;-73
2023/01/25 01:54:14;;;;;;;29.55;16.30;;;5.80;99.90;;;;;;5014340;28;20465;-72
2023/01/25 01:56:50;;;;;;;32.33;16.27;;;5.70;99.90;;;;;;5013978;28;20108;-74
2023/01/25 01:59:16;;;;;;;32.60;18.10;;;5.70;99.90;;;;;;5014422;28;20105;-74
2023/01/25 02:01:43;;;;;;;35.60;18.90;;;5.70;99.90;;;;;;5014154;28;20529;-73
2023/01/25 02:04:11;;;;;;;31.35;16.92;;;5.80;99.90;;;;;;4996582;28;20021;-72
2023/01/25 02:06:51;;;;;;;33.05;17.60;;;5.70;99.90;;;;;;5014081;28;20018;-73
2023/01/25 02:09:20;;;;;;;29.77;15.07;;;5.70;99.90;;;;;;5013974;28;20013;-73
2023/01/25 02:11:46;;;;;;;33.88;16.73;;;5.80;99.90;;;;;;5013745;28;20408;-72
2023/01/25 02:14:14;;;;;;;34.00;17.33;;;5.80;99.90;;;;;;5013723;28;20061;-73
2023/01/25 02:16:40;;;;;;;27.95;14.63;;;5.70;99.90;;;;;;5013826;28;20441;-72
2023/01/25 02:19:10;;;;;;;29.25;15.15;;;5.80;99.90;;;;;;5013371;28;20080;-74
2023/01/25 02:21:42;;;;;;;32.13;16.73;;;5.70;99.90;;;;;;5013252;28;20022;-73
2023/01/25 02:24:27;;;;;;;32.28;16.73;;;5.70;99.90;;;;;;5013469;28;20080;-73
2023/01/25 02:26:52;;;;;;;34.10;16.38;;;5.70;99.90;;;;;;5013403;28;20442;-73
2023/01/25 02:29:22;;;;;;;31.70;16.25;;;5.70;99.90;;;;;;5013422;28;20026;-72
2023/01/25 02:31:51;;;;;;;31.38;16.73;;;5.70;99.90;;;;;;5013964;28;20034;-72
2023/01/25 02:34:17;;;;;;;36.90;17.65;;;5.70;99.90;;;;;;5013653;28;20414;-72
2023/01/25 02:36:43;;;;;;;31.00;15.73;;;5.70;99.90;;;;;;4995698;28;20460;-73
2023/01/25 02:39:14;;;;;;;33.25;17.65;;;5.70;99.90;;;;;;5012917;28;20148;-73
2023/01/25 02:41:42;;;;;;;31.00;15.68;;;5.70;99.90;;;;;;5013044;28;20018;-73
2023/01/25 02:44:16;;;;;;;33.10;16.30;;;5.70;99.90;;;;;;4995744;28;20022;-73
2023/01/25 02:46:46;;;;;;;31.02;15.80;;;5.70;99.90;;;;;;4995537;28;20113;-73
2023/01/25 02:49:13;;;;;;;34.30;16.60;;;5.70;99.90;;;;;;4995366;28;20022;-73
2023/01/25 02:51:46;;;;;;;34.15;16.55;;;5.70;99.90;;;;;;5013004;28;20041;-73
2023/01/25 02:54:13;;;;;;;33.03;16.60;;;5.70;99.90;;;;;;5012684;28;20105;-73
2023/01/25 02:56:39;;;;;;;33.97;18.15;;;5.70;99.90;;;;;;5012690;28;20037;-72
2023/01/25 02:59:06;;;;;;;33.90;17.65;;;5.70;99.90;;;;;;5013160;28;20171;-73
2023/01/25 03:01:33;;;;;;;35.80;17.98;;;5.70;99.90;;;;;;5013110;28;20053;-72
2023/01/25 03:03:59;;;;;;;37.80;17.58;;;5.70;99.90;;;;;;5012783;28;20029;-71
2023/01/25 03:06:25;;;;;;;33.25;17.33;;;5.70;99.90;;;;;;5012764;28;20026;-73
2023/01/25 03:08:50;;;;;;;34.72;17.23;;;5.60;99.90;;;;;;4995315;28;20014;-72
2023/01/25 03:11:16;;;;;;;35.90;17.35;;;5.70;99.90;;;;;;4995228;28;20134;-73
2023/01/25 03:13:42;;;;;;;29.40;15.95;;;5.70;99.90;;;;;;5012774;28;20482;-73
2023/01/25 03:16:10;;;;;;;30.45;15.38;;;5.60;99.90;;;;;;5012550;28;20030;-73
2023/01/25 03:18:37;;;;;;;36.35;17.50;;;5.60;99.90;;;;;;5012410;28;20080;-74
2023/01/25 03:21:17;;;;;;;31.20;15.82;;;5.60;99.90;;;;;;5012461;28;20053;-74
2023/01/25 03:23:45;;;;;;;35.65;18.63;;;5.60;99.90;;;;;;5012617;28;20479;-73
2023/01/25 03:26:13;;;;;;;33.92;18.67;;;5.60;99.90;;;;;;4994923;28;20045;-72
2023/01/25 03:28:40;;;;;;;34.05;17.23;;;5.60;99.90;;;;;;5012401;28;20378;-73
2023/01/25 03:31:07;;;;;;;32.85;17.00;;;5.60;99.90;;;;;;5012432;28;20030;-73
2023/01/25 03:33:34;;;;;;;32.65;17.05;;;5.60;99.90;;;;;;5012147;28;20054;-73
2023/01/25 03:36:00;;;;;;;30.80;15.55;;;5.60;99.90;;;;;;5012161;28;20025;-73
2023/01/25 03:38:26;;;;;;;35.05;18.55;;;5.60;99.90;;;;;;5011814;28;20053;-73
2023/01/25 03:40:52;;;;;;;38.28;17.50;;;5.60;99.90;;;;;;5012136;28;20030;-74
2023/01/25 03:43:18;;;;;;;32.22;16.52;;;5.60;99.90;;;;;;5012375;28;20109;-73
2023/01/25 03:45:44;;;;;;;31.23;16.27;;;5.60;99.90;;;;;;5012590;28;20029;-73
2023/01/25 03:48:09;;;;;;;31.95;17.00;;;5.50;99.90;;;;;;5012408;28;20029;-73
2023/01/25 03:50:35;;;;;;;31.48;16.60;;;5.50;99.90;;;;;;5012477;28;20026;-73
2023/01/25 03:53:06;;;;;;;28.60;14.88;;;5.50;99.90;;;;;;5012323;28;20064;-73
2023/01/25 03:55:32;;;;;;;30.13;15.70;;;5.50;99.90;;;;;;5012266;28;20022;-73
2023/01/25 03:57:58;;;;;;;27.02;14.65;;;5.50;99.90;;;;;;5012356;28;20030;-73
2023/01/25 04:00:24;;;;;;;27.63;14.45;;;5.50;99.90;;;;;;5014058;28;20022;-73
2023/01/25 04:02:50;;;;;;;29.48;15.50;;;5.50;99.90;;;;;;5012433;28;20589;-73
2023/01/25 04:05:17;;;;;;;26.40;15.60;;;5.40;99.90;;;;;;5012557;28;20033;-73
2023/01/25 04:07:42;;;;;;;30.98;16.30;;;5.50;99.90;;;;;;5013233;28;20030;-73
2023/01/25 04:10:09;;;;;;;26.95;14.82;;;5.50;99.90;;;;;;5013289;28;20348;-73
2023/01/25 04:12:34;;;;;;;32.42;15.40;;;5.40;99.90;;;;;;5011929;28;20026;-72
2023/01/25 04:15:00;;;;;;;27.30;14.38;;;5.40;99.90;;;;;;5011568;28;20033;-73
2023/01/25 04:17:26;;;;;;;27.67;15.50;;;5.40;99.90;;;;;;4977718;28;20041;-74
2023/01/25 04:19:51;;;;;;;28.52;15.38;;;5.40;99.90;;;;;;4994143;28;20029;-73
2023/01/25 04:22:17;;;;;;;25.45;14.25;;;5.40;99.90;;;;;;5011927;28;20214;-74
2023/01/25 04:24:43;;;;;;;28.70;14.68;;;5.40;99.90;;;;;;4994078;28;20104;-73
2023/01/25 04:27:09;;;;;;;28.13;15.05;;;5.40;99.90;;;;;;5011650;28;20447;-73
2023/01/25 04:29:35;;;;;;;31.15;16.33;;;5.40;99.90;;;;;;5011780;28;20597;-72
2023/01/25 04:32:01;;;;;;;32.40;16.80;;;5.40;99.90;;;;;;5011491;28;20033;-73
2023/01/25 04:34:27;;;;;;;30.38;15.63;;;5.40;99.90;;;;;;5011241;28;20463;-73
2023/01/25 04:36:53;;;;;;;30.17;14.27;;;5.40;99.90;;;;;;5011335;28;20463;-73
2023/01/25 04:39:19;;;;;;;27.80;15.63;;;5.40;99.90;;;;;;5011175;28;20065;-73
2023/01/25 04:41:45;;;;;;;31.00;15.73;;;5.40;99.90;;;;;;5011325;28;20026;-73
2023/01/25 04:44:10;;;;;;;30.52;15.38;;;5.50;99.90;;;;;;4993769;28;20096;-73
2023/01/25 04:46:36;;;;;;;34.15;15.95;;;5.50;99.90;;;;;;5011102;28;20022;-73
2023/01/25 04:49:02;;;;;;;28.70;14.90;;;5.50;99.90;;;;;;4993527;28;20426;-73
2023/01/25 04:51:28;;;;;;;27.08;14.55;;;5.40;99.90;;;;;;4993600;28;20088;-72
2023/01/25 04:53:53;;;;;;;27.52;13.77;;;5.50;99.90;;;;;;5011118;28;20101;-72
2023/01/25 04:56:19;;;;;;;25.90;13.68;;;5.40;99.90;;;;;;5011230;28;20137;-72
2023/01/25 04:58:45;;;;;;;25.88;13.25;;;5.40;99.90;;;;;;5010905;28;20045;-71
2023/01/25 05:01:11;;;;;;;26.55;13.93;;;5.40;99.90;;;;;;5011145;28;20022;-72
2023/01/25 05:03:36;;;;;;;28.75;15.68;;;5.40;99.90;;;;;;4993478;28;20026;-72
2023/01/25 05:06:02;;;;;;;29.10;14.45;;;5.40;99.90;;;;;;4993114;28;20474;-72
2023/01/25 05:08:28;;;;;;;28.17;14.30;;;5.40;99.90;;;;;;5011030;28;20026;-73
2023/01/25 05:10:53;;;;;;;25.83;14.00;;;5.40;99.90;;;;;;5011099;28;20026;-73
2023/01/25 05:13:19;;;;;;;27.95;15.18;;;5.40;99.90;;;;;;5011146;28;20123;-72
2023/01/25 05:15:45;;;;;;;27.15;15.15;;;5.40;99.90;;;;;;5010882;28;20115;-72
2023/01/25 05:18:11;;;;;;;28.95;14.77;;;5.40;99.90;;;;;;5014197;28;20089;-75
2023/01/25 05:20:37;;;;;;;28.85;14.65;;;5.30;99.90;;;;;;5014715;28;20467;-72
2023/01/25 05:23:02;;;;;;;26.38;13.27;;;5.30;99.90;;;;;;5014689;28;20032;-73
2023/01/25 05:28:14;;;;;;;30.13;14.23;;;5.30;99.90;;;;;;4974276;28;20038;-73
2023/01/25 05:30:39;;;;;;;27.35;14.80;;;5.30;99.90;;;;;;4996887;28;20505;-72
2023/01/25 05:33:05;;;;;;;28.65;15.20;;;5.30;99.90;;;;;;5014704;28;20062;-72
2023/01/25 05:35:31;;;;;;;27.02;13.82;;;5.30;99.90;;;;;;5014354;28;20492;-72
2023/01/25 05:37:57;;;;;;;28.55;14.27;;;5.30;99.90;;;;;;5014378;28;20030;-73
2023/01/25 05:40:24;;;;;;;31.63;14.63;;;5.30;99.90;;;;;;5014101;28;20042;-72
2023/01/25 05:42:57;;;;;;;29.95;13.95;;;5.30;99.90;;;;;;5014204;28;20627;-72
2023/01/25 05:45:23;;;;;;;26.85;13.88;;;5.30;99.90;;;;;;5014244;28;20065;-73
2023/01/25 05:47:53;;;;;;;31.52;15.18;;;5.30;99.90;;;;;;5014220;28;20061;-73
2023/01/25 05:50:20;;;;;;;29.48;14.52;;;5.20;99.90;;;;;;5014119;28;20022;-73
2023/01/25 05:52:46;;;;;;;33.22;15.77;;;5.20;99.90;;;;;;5013788;28;20068;-72
2023/01/25 05:55:12;;;;;;;38.75;17.00;;;5.20;99.90;;;;;;5014076;28;20024;-72
2023/01/25 05:57:37;;;;;;;41.90;16.58;;;5.20;99.90;;;;;;5013977;28;20566;-72
2023/01/25 06:00:04;;;;;;;33.78;16.63;;;5.20;99.90;;;;;;5014054;28;20109;-73
2023/01/25 06:02:31;;;;;;;40.60;17.40;;;5.20;99.90;;;;;;5013836;28;20030;-73
2023/01/25 06:04:57;;;;;;;40.17;19.17;;;5.20;99.90;;;;;;5013896;28;20026;-73
2023/01/25 06:07:22;;;;;;;36.35;17.85;;;5.20;99.90;;;;;;5013917;28;20030;-73
2023/01/25 06:09:48;;;;;;;40.50;17.38;;;5.20;99.90;;;;;;5014025;28;20574;-73
2023/01/25 06:12:15;;;;;;;38.10;17.67;;;5.20;99.90;;;;;;5013990;28;20033;-72
2023/01/25 06:14:41;;;;;;;36.95;17.65;;;5.20;99.90;;;;;;4996094;28;20494;-73
2023/01/25 06:17:07;;;;;;;37.92;18.25;;;5.20;99.90;;;;;;5013915;28;20037;-73
2023/01/25 06:19:33;;;;;;;41.25;18.77;;;5.20;99.90;;;;;;4994886;28;20030;-73
2023/01/25 06:21:58;;;;;;;38.97;17.75;;;5.10;99.90;;;;;;4999253;28;20028;-73
2023/01/25 06:24:24;;;;;;;39.53;17.35;;;5.10;99.90;;;;;;4985342;28;20034;-72
2023/01/25 06:26:49;;;;;;;36.80;16.98;;;5.10;99.90;;;;;;5004869;28;20024;-73
2023/01/25 06:29:15;;;;;;;40.13;18.33;;;5.10;99.90;;;;;;5012392;28;20518;-72
2023/01/25 06:31:41;;;;;;;35.40;16.20;;;5.10;99.90;;;;;;5013502;28;20426;-73
2023/01/25 06:34:07;;;;;;;33.42;15.20;;;5.10;99.90;;;;;;5013323;28;20118;-73
2023/01/25 06:36:33;;;;;;;31.65;15.70;;;5.00;99.90;;;;;;5013268;28;20057;-72
2023/01/25 06:38:59;;;;;;;36.20;16.70;;;5.00;99.90;;;;;;5013011;28;20050;-73
2023/01/25 06:41:25;;;;;;;39.65;16.92;;;5.00;99.90;;;;;;5013923;28;20073;-73
2023/01/25 06:43:51;;;;;;;38.35;18.58;;;5.00;99.90;;;;;;5027982;28;20513;-72
2023/01/25 06:46:17;;;;;;;38.05;16.27;;;4.90;99.90;;;;;;5033072;28;20022;-73
2023/01/25 06:48:43;;;;;;;42.95;19.10;;;4.90;99.90;;;;;;5032994;28;20017;-73
2023/01/25 06:51:13;;;;;;;42.22;19.60;;;5.00;99.90;;;;;;5015357;28;20083;-72
2023/01/25 06:53:42;;;;;;;35.78;17.33;;;5.00;99.90;;;;;;5032920;28;20018;-72
2023/01/25 06:56:11;;;;;;;43.70;19.08;;;5.00;99.90;;;;;;5032888;28;20025;-72
2023/01/25 06:58:37;;;;;;;49.63;20.75;;;5.00;99.90;;;;;;5034973;28;20080;-74
2023/01/25 07:01:04;;;;;;;44.67;19.58;;;4.90;99.90;;;;;;5019620;28;20048;-72
2023/01/25 07:03:30;;;;;;;40.05;18.52;;;4.90;99.90;;;;;;5036479;28;20036;-72
2023/01/25 07:06:14;;;;;;;42.38;19.25;;;4.90;99.90;;;;;;5036646;28;20111;-72
2023/01/25 07:08:40;;;;;;;41.85;17.77;;;4.90;99.90;;;;;;5032693;28;20037;-73
2023/01/25 07:11:11;;;;;;;44.08;18.60;;;4.90;99.90;;;;;;5031381;28;20489;-73
2023/01/25 07:13:37;;;;;;;45.92;19.50;;;4.90;99.90;;;;;;5008763;28;20116;-73
2023/01/25 07:16:06;;;;;;;45.17;17.98;;;4.90;99.90;;;;;;5012177;28;20168;-73
2023/01/25 07:18:33;;;;;;;41.97;17.85;;;4.90;99.90;;;;;;4990362;28;20041;-72
2023/01/25 07:21:13;;;;;;;45.55;18.83;;;4.90;99.90;;;;;;5014902;28;20022;-74
2023/01/25 07:23:40;;;;;;;44.03;18.63;;;4.80;99.90;;;;;;4995341;28;20536;-74
2023/01/25 07:26:15;;;;;;;42.17;18.33;;;4.80;99.90;;;;;;5012740;28;20101;-74
2023/01/25 07:28:41;;;;;;;39.30;16.92;;;4.80;99.90;;;;;;5012009;28;20028;-73
2023/01/25 07:31:07;;;;;;;39.63;17.27;;;4.80;99.90;;;;;;5010954;28;20109;-73
2023/01/25 07:33:33;;;;;;;39.65;17.40;;;4.80;99.90;;;;;;5012643;28;20041;-73
2023/01/25 07:36:01;;;;;;;40.47;17.83;;;4.80;99.90;;;;;;5010200;28;20034;-71
2023/01/25 07:38:26;;;;;;;41.30;19.08;;;4.80;99.90;;;;;;5012073;28;20116;-72
2023/01/25 07:40:53;;;;;;;45.05;19.25;;;4.80;99.90;;;;;;5011951;28;20490;-73
2023/01/25 07:43:19;;;;;;;49.45;20.13;;;4.80;99.90;;;;;;5011172;28;20057;-73
2023/01/25 07:45:47;;;;;;;42.90;18.95;;;4.80;99.90;;;;;;5012014;28;20021;-73
2023/01/25 07:48:17;;;;;;;43.28;18.42;;;4.80;99.90;;;;;;5010888;28;20474;-73
2023/01/25 07:51:10;;;;;;;37.63;16.73;;;4.80;99.90;;;;;;5008362;28;20033;-72
2023/01/25 07:53:32;;;;;;;34.97;15.25;;;4.80;99.90;;;;;;5010728;28;20040;-72
2023/01/25 07:55:58;;;;;;;34.72;16.50;;;4.80;99.90;;;;;;4994269;28;20383;-72
2023/01/25 07:58:23;;;;;;;34.55;16.35;;;4.70;99.90;;;;;;5011427;28;20109;-73
2023/01/25 08:00:49;;;;;;;34.17;16.33;;;4.70;99.90;;;;;;5011047;28;20084;-71
2023/01/25 08:03:15;;;;;;;36.35;15.38;;;4.70;99.90;;;;;;5010732;28;20148;-71
2023/01/25 08:05:43;;;;;;;37.35;16.05;;;4.60;99.90;;;;;;5010746;28;20037;-72
2023/01/25 08:08:09;;;;;;;36.88;15.88;;;4.60;99.90;;;;;;5011417;28;20030;-74
2023/01/25 08:10:35;;;;;;;41.90;17.65;;;4.60;99.90;;;;;;5011759;28;20087;-72
2023/01/25 08:13:00;;;;;;;35.95;16.55;;;4.60;99.90;;;;;;5011772;28;20037;-73
2023/01/25 08:15:26;;;;;;;34.88;16.73;;;4.60;99.90;;;;;;5011592;28;20522;-73
2023/01/25 08:17:52;;;;;;;32.88;15.63;;;4.60;99.90;;;;;;5011500;28;20496;-73
2023/01/25 08:20:18;;;;;;;36.80;16.75;;;4.70;99.90;;;;;;5010681;28;20482;-73
2023/01/25 08:22:43;;;;;;;33.42;14.93;;;4.70;99.90;;;;;;4992861;28;20037;-74
2023/01/25 08:25:09;;;;;;;33.20;14.95;;;4.70;99.90;;;;;;5007103;28;20045;-72
2023/01/25 08:27:35;;;;;;;34.55;15.75;;;4.70;99.90;;;;;;5011541;28;20084;-72
2023/01/25 08:30:01;;;;;;;38.10;15.20;;;4.70;99.90;;;;;;5009378;28;20258;-72
2023/01/25 08:32:27;;;;;;;34.83;15.40;;;4.70;99.90;;;;;;5010528;28;20069;-72
2023/01/25 08:34:52;;;;;;;34.85;17.10;;;4.70;99.90;;;;;;5011691;28;20076;-73
2023/01/25 08:37:18;;;;;;;33.75;15.65;;;4.60;99.90;;;;;;5008543;28;20030;-74
2023/01/25 08:39:44;;;;;;;31.40;15.18;;;4.70;99.90;;;;;;5009570;28;20060;-73
2023/01/25 08:42:10;;;;;;;29.95;14.27;;;4.70;99.90;;;;;;5011323;28;20081;-73
2023/01/25 08:44:35;;;;;;;27.90;13.77;;;4.70;99.90;;;;;;5011533;28;20499;-73
2023/01/25 08:47:01;;;;;;;32.08;15.20;;;4.70;99.90;;;;;;5011307;28;20018;-72
2023/01/25 08:49:27;;;;;;;33.60;14.93;;;4.70;99.90;;;;;;5011328;28;20157;-72
2023/01/25 08:51:52;;;;;;;32.58;15.43;;;4.70;99.90;;;;;;5012448;28;20430;-72
2023/01/25 08:54:18;;;;;;;34.88;14.27;;;4.80;99.90;;;;;;5015276;28;20030;-72
2023/01/25 08:56:44;;;;;;;34.92;14.45;;;4.80;99.90;;;;;;5015117;28;20082;-72
2023/01/25 08:59:11;;;;;;;31.67;14.40;;;4.80;99.90;;;;;;5015362;28;20030;-72
2023/01/25 09:01:37;;;;;;;30.42;14.57;;;4.90;99.90;;;;;;5015401;28;20068;-73
2023/01/25 09:04:03;;;;;;;35.55;16.13;;;4.90;99.90;;;;;;5015100;28;20120;-72
2023/01/25 09:06:28;;;;;;;33.42;15.75;;;4.90;99.90;;;;;;5015081;28;20018;-72
2023/01/25 09:08:54;;;;;;;33.30;15.18;;;4.80;99.90;;;;;;4997303;28;20030;-71
2023/01/25 09:11:21;;;;;;;31.40;14.65;;;4.90;99.90;;;;;;5015449;28;20026;-71
2023/01/25 09:13:48;;;;;;;34.88;16.13;;;4.90;99.90;;;;;;5015184;28;20135;-72
2023/01/25 09:16:16;;;;;;;29.90;14.80;;;4.90;99.90;;;;;;5015005;28;20073;-72
2023/01/25 09:18:44;;;;;;;33.40;15.45;;;4.90;99.90;;;;;;5014959;28;20444;-73
2023/01/25 09:21:12;;;;;;;34.45;15.10;;;4.90;99.90;;;;;;5014965;28;20026;-72
2023/01/25 09:23:38;;;;;;;32.38;15.05;;;4.80;99.90;;;;;;5014642;28;21129;-72
2023/01/25 09:26:04;;;;;;;35.10;15.95;;;4.80;99.90;;;;;;4996958;28;20392;-71
2023/01/25 09:28:32;;;;;;;34.17;16.05;;;4.80;99.90;;;;;;5014753;28;20022;-71
2023/01/25 09:31:00;;;;;;;32.35;14.43;;;4.90;99.90;;;;;;5014596;28;20085;-72
2023/01/25 09:33:28;;;;;;;36.58;15.80;;;4.90;99.90;;;;;;5014564;28;20017;-71
2023/01/25 09:35:54;;;;;;;37.08;16.40;;;4.80;99.90;;;;;;5014419;28;20076;-71
2023/01/25 09:38:20;;;;;;;35.13;15.00;;;4.90;99.90;;;;;;5014066;28;20038;-71
2023/01/25 09:41:11;;;;;;;33.88;14.55;;;4.90;99.90;;;;;;4996856;28;20036;-72
2023/01/25 09:43:49;;;;;;;31.93;14.40;;;4.90;99.90;;;;;;5014750;28;20025;-71
2023/01/25 09:46:39;;;;;;;37.70;17.27;;;5.00;99.90;;;;;;5014390;28;20022;-72
2023/01/25 09:49:39;;;;;;;38.20;17.27;;;5.10;99.90;;;;;;4987393;28;20117;-72
2023/01/25 09:52:45;;;;;;;29.08;13.50;;;5.10;99.90;;;;;;5014208;28;20029;-72
2023/01/25 09:55:14;;;;;;;30.95;13.82;;;5.20;99.90;;;;;;5014455;28;20022;-72
2023/01/25 09:57:44;;;;;;;31.25;14.80;;;5.20;99.90;;;;;;5014467;28;20113;-73
2023/01/25 10:00:15;;;;;;;30.48;13.15;;;5.30;99.90;;;;;;5018298;28;20033;-72
2023/01/25 10:03:15;;;;;;;30.98;13.93;;;5.40;99.90;;;;;;5019752;28;20092;-72
2023/01/25 10:05:44;;;;;;;33.58;15.52;;;5.40;99.90;;;;;;5015305;28;20363;-72
2023/01/25 10:08:37;;;;;;;36.05;15.35;;;5.50;99.90;;;;;;5014107;28;20038;-72
2023/01/25 10:11:26;;;;;;;35.10;15.75;;;5.60;99.90;;;;;;5014599;28;20037;-72
2023/01/25 10:13:55;;;;;;;35.97;16.08;;;5.70;99.90;;;;;;5013909;28;20022;-73
2023/01/25 10:16:38;;;;;;;35.33;15.75;;;5.70;99.90;;;;;;4982360;28;20430;-73
2023/01/25 10:19:22;;;;;;;34.00;15.35;;;5.70;99.90;;;;;;5015777;28;20034;-73
2023/01/25 10:21:59;;;;;;;35.58;14.40;;;5.70;99.90;;;;;;5013487;28;20022;-74
2023/01/25 10:24:37;;;;;;;30.60;14.57;;;5.80;99.90;;;;;;5013741;28;20030;-72
2023/01/25 10:27:36;;;;;;;33.17;15.00;;;5.80;99.90;;;;;;5013587;28;20228;-71
2023/01/25 10:30:21;;;;;;;36.10;15.93;;;5.80;99.90;;;;;;5013475;28;20030;-71
2023/01/25 10:32:51;;;;;;;32.47;15.60;;;5.90;99.90;;;;;;4995844;28;20029;-71
2023/01/25 10:35:21;;;;;;;35.53;16.20;;;6.00;99.90;;;;;;5013315;28;20026;-70
2023/01/25 10:37:48;;;;;;;34.03;15.38;;;6.00;99.90;;;;;;4995730;28;20034;-71
2023/01/25 10:40:20;;;;;;;35.42;16.42;;;5.90;99.90;;;;;;4995280;28;20096;-71
2023/01/25 10:43:19;;;;;;;37.08;16.38;;;6.00;99.90;;;;;;5013191;28;20030;-73
2023/01/25 10:45:46;;;;;;;39.38;18.05;;;6.00;99.90;;;;;;5013193;28;20026;-72
2023/01/25 10:48:26;;;;;;;39.20;16.42;;;5.90;99.90;;;;;;5013148;28;20018;-72
2023/01/25 10:50:54;;;;;;;37.55;15.82;;;5.80;99.90;;;;;;5013202;28;20026;-72
2023/01/25 10:53:43;;;;;;;42.25;16.13;;;5.70;99.90;;;;;;5012994;28;20022;-72
2023/01/25 10:56:22;;;;;;;46.85;16.33;;;5.70;99.90;;;;;;5013120;28;20057;-72
2023/01/25 10:58:53;;;;;;;43.60;15.63;;;5.70;99.90;;;;;;5012898;28;20037;-72
2023/01/25 11:01:32;;;;;;;39.97;15.10;;;5.50;99.90;;;;;;5012951;28;20029;-72
2023/01/25 11:03:59;;;;;;;30.98;14.43;;;5.60;99.90;;;;;;5013053;28;20033;-71
2023/01/25 11:06:35;;;;;;;41.17;15.75;;;5.70;99.90;;;;;;5012889;28;20033;-72
2023/01/25 11:09:21;;;;;;;31.80;14.57;;;5.60;99.90;;;;;;5012934;28;20026;-72
2023/01/25 11:12:10;;;;;;;34.40;13.82;;;5.50;99.90;;;;;;4998982;28;20026;-72
2023/01/25 11:14:36;;;;;;;27.95;13.05;;;5.50;99.90;;;;;;5000234;28;20034;-73
2023/01/25 11:17:04;;;;;;;33.67;14.25;;;5.50;99.90;;;;;;5012685;28;20034;-73
2023/01/25 11:19:36;;;;;;;28.38;12.88;;;5.40;99.90;;;;;;5012778;28;20029;-73
2023/01/25 11:22:19;;;;;;;31.48;14.15;;;5.40;99.90;;;;;;4995298;28;20030;-73
2023/01/25 11:24:45;;;;;;;31.42;13.15;;;5.40;99.90;;;;;;5012703;28;20168;-73
2023/01/25 11:27:17;;;;;;;29.80;13.57;;;5.40;99.90;;;;;;5012660;28;20040;-73
2023/01/25 11:29:45;;;;;;;29.50;13.25;;;5.50;99.90;;;;;;5012417;28;20020;-72
2023/01/25 11:32:21;;;;;;;29.25;12.15;;;5.40;99.90;;;;;;5012538;28;20093;-72
2023/01/25 11:34:49;;;;;;;33.88;14.07;;;5.50;99.90;;;;;;5012260;28;20069;-72
2023/01/25 11:37:33;;;;;;;33.28;14.10;;;5.40;99.90;;;;;;5012331;28;20053;-72
2023/01/25 11:40:18;;;;;;;30.52;13.60;;;5.40;99.90;;;;;;5012059;28;20525;-72
2023/01/25 11:43:24;;;;;;;30.10;13.60;;;5.50;99.90;;;;;;5012252;28;20022;-72
2023/01/25 11:46:00;;;;;;;35.05;15.48;;;5.50;99.90;;;;;;4982554;28;20046;-73
2023/01/25 11:48:26;;;;;;;35.63;15.82;;;5.50;99.90;;;;;;5012291;28;20083;-72
2023/01/25 11:51:22;;;;;;;32.05;14.52;;;5.40;99.90;;;;;;5012207;28;20104;-73
2023/01/25 11:54:19;;;;;;;34.85;14.27;;;5.40;99.90;;;;;;5012076;28;20018;-72
2023/01/25 11:56:50;;;;;;;32.75;14.63;;;5.40;99.90;;;;;;4983751;28;20037;-72
2023/01/25 12:00:00;;;;;;;35.97;15.13;;;5.40;99.90;;;;;;5012216;28;20386;-71
2023/01/25 12:02:47;;;;;;;35.75;14.60;;;5.40;99.90;;;;;;5012149;28;20026;-72
2023/01/25 12:05:32;;;;;;;36.55;15.30;;;5.50;99.90;;;;;;5011872;28;20098;-72
2023/01/25 12:08:16;;;;;;;34.65;15.10;;;5.50;99.90;;;;;;5011762;28;20079;-72
2023/01/25 12:11:03;;;;;;;36.55;15.85;;;5.40;99.90;;;;;;5011810;28;20048;-72
2023/01/25 12:13:48;;;;;;;37.75;16.10;;;5.40;99.90;;;;;;5011633;28;20416;-72
2023/01/25 12:16:26;;;;;;;34.53;14.20;;;5.40;99.90;;;;;;5011537;28;20029;-72
2023/01/25 12:19:13;;;;;;;29.88;13.10;;;5.50;99.90;;;;;;5011651;28;20037;-73
2023/01/25 12:21:56;;;;;;;27.77;12.55;;;5.50;99.90;;;;;;4994167;28;20030;-72
2023/01/25 12:24:46;;;;;;;32.28;14.88;;;5.50;99.90;;;;;;5011568;28;20072;-71
2023/01/25 12:27:29;;;;;;;36.95;15.32;;;5.60;99.90;;;;;;5010632;28;20116;-72
2023/01/25 12:30:21;;;;;;;34.58;15.70;;;5.60;99.90;;;;;;5011557;28;20025;-72
2023/01/25 12:32:57;;;;;;;37.20;15.02;;;5.70;99.90;;;;;;5011551;28;20161;-73
2023/01/25 12:35:36;;;;;;;36.67;15.63;;;5.70;99.90;;;;;;4993713;28;20534;-71
2023/01/25 12:38:09;;;;;;;41.60;17.23;;;5.70;99.90;;;;;;5011196;28;20030;-72
2023/01/25 12:40:38;;;;;;;41.15;17.17;;;5.90;99.90;;;;;;5011400;28;20037;-72
2023/01/25 12:43:14;;;;;;;36.40;16.88;;;5.80;99.90;;;;;;5011474;28;20030;-72
2023/01/25 12:45:44;;;;;;;36.17;16.50;;;5.90;99.90;;;;;;5011314;28;20488;-73
2023/01/25 12:48:27;;;;;;;32.20;15.02;;;5.90;99.90;;;;;;5011242;28;20052;-72
2023/01/25 12:50:58;;;;;;;35.42;15.10;;;5.70;99.90;;;;;;5011463;28;20030;-73
2023/01/25 12:53:40;;;;;;;34.83;15.10;;;5.60;99.90;;;;;;5011408;28;20026;-72
2023/01/25 12:56:10;;;;;;;33.72;15.40;;;5.40;99.90;;;;;;5012542;28;20054;-73